sensor_id;sensor_type;location;lat;lon;timestamp;P1;durP1;ratioP1;P2;durP2;ratioP2
65552;SDS011;52465;51.560;14.368;2023-05-10T00:02:03;5.95;;;5.50;;
65552;SDS011;52465;51.560;14.368;2023-05-10T00:04:28;6.20;;;5.70;;
65552;SDS011;52465;51.560;14.368;2023-05-10T00:06:54;6.20;;;5.70;;
65552;SDS011;52465;51.560;14.368;2023-05-10T00:09:19;5.78;;;5.28;;
65552;SDS011;52465;51.560;14.368;2023-05-10T00:11:45;5.60;;;5.20;;
65552;SDS011;52465;51.560;14.368;2023-05-10T00:14:11;5.78;;;5.32;;
65552;SDS011;52465;51.560;14.368;2023-05-10T00:16:36;5.32;;;4.97;;
65552;SDS011;52465;51.560;14.368;2023-05-10T00:19:02;5.55;;;5.18;;
65552;SDS011;52465;51.560;14.368;2023-05-10T00:21:27;5.80;;;5.40;;
65552;SDS011;52465;51.560;14.368;2023-05-10T00:23:53;5.80;;;5.40;;
65552;SDS011;52465;51.560;14.368;2023-05-10T00:26:18;5.93;;;5.50;;
65552;SDS011;52465;51.560;14.368;2023-05-10T00:28:44;5.75;;;5.32;;
65552;SDS011;52465;51.560;14.368;2023-05-10T00:31:10;5.93;;;5.45;;
65552;SDS011;52465;51.560;14.368;2023-05-10T00:33:35;5.70;;;5.30;;
65552;SDS011;52465;51.560;14.368;2023-05-10T00:36:00;5.85;;;5.43;;
65552;SDS011;52465;51.560;14.368;2023-05-10T00:38:27;5.80;;;5.30;;
65552;SDS011;52465;51.560;14.368;2023-05-10T00:40:52;5.82;;;5.32;;
65552;SDS011;52465;51.560;14.368;2023-05-10T00:43:17;5.70;;;5.30;;
65552;SDS011;52465;51.560;14.368;2023-05-10T00:45:43;5.57;;;5.18;;
65552;SDS011;52465;51.560;14.368;2023-05-10T00:48:08;5.68;;;5.28;;
65552;SDS011;52465;51.560;14.368;2023-05-10T00:50:34;6.13;;;5.60;;
65552;SDS011;52465;51.560;14.368;2023-05-10T00:53:00;5.88;;;5.47;;
65552;SDS011;52465;51.560;14.368;2023-05-10T00:55:26;5.60;;;5.20;;
65552;SDS011;52465;51.560;14.368;2023-05-10T00:57:52;6.07;;;5.57;;
65552;SDS011;52465;51.560;14.368;2023-05-10T01:00:18;5.45;;;5.15;;
65552;SDS011;52465;51.560;14.368;2023-05-10T01:02:44;6.03;;;5.40;;
65552;SDS011;52465;51.560;14.368;2023-05-10T01:05:11;6.10;;;5.70;;
65552;SDS011;52465;51.560;14.368;2023-05-10T01:07:37;6.38;;;5.88;;
65552;SDS011;52465;51.560;14.368;2023-05-10T01:10:04;5.90;;;5.50;;
65552;SDS011;52465;51.560;14.368;2023-05-10T01:12:30;5.80;;;5.40;;
65552;SDS011;52465;51.560;14.368;2023-05-10T01:14:57;6.22;;;5.72;;
65552;SDS011;52465;51.560;14.368;2023-05-10T01:17:23;5.90;;;5.50;;
65552;SDS011;52465;51.560;14.368;2023-05-10T01:19:49;5.78;;;5.32;;
65552;SDS011;52465;51.560;14.368;2023-05-10T01:22:27;5.45;;;5.15;;
65552;SDS011;52465;51.560;14.368;2023-05-10T01:37:33;5.78;;;5.28;;
65552;SDS011;52465;51.560;14.368;2023-05-10T01:42:52;5.97;;;5.47;;
65552;SDS011;52465;51.560;14.368;2023-05-10T01:45:38;6.38;;;5.88;;
65552;SDS011;52465;51.560;14.368;2023-05-10T01:48:10;6.20;;;5.70;;
65552;SDS011;52465;51.560;14.368;2023-05-10T01:50:40;5.80;;;5.35;;
65552;SDS011;52465;51.560;14.368;2023-05-10T01:53:08;5.95;;;5.45;;
65552;SDS011;52465;51.560;14.368;2023-05-10T01:55:36;5.65;;;5.18;;
65552;SDS011;52465;51.560;14.368;2023-05-10T01:58:13;5.68;;;5.28;;
65552;SDS011;52465;51.560;14.368;2023-05-10T02:00:40;5.88;;;5.43;;
65552;SDS011;52465;51.560;14.368;2023-05-10T02:03:08;5.80;;;5.20;;
65552;SDS011;52465;51.560;14.368;2023-05-10T02:05:36;5.85;;;5.40;;
65552;SDS011;52465;51.560;14.368;2023-05-10T02:08:05;5.38;;;5.05;;
65552;SDS011;52465;51.560;14.368;2023-05-10T02:10:32;5.72;;;5.32;;
65552;SDS011;52465;51.560;14.368;2023-05-10T02:12:59;5.47;;;5.07;;
65552;SDS011;52465;51.560;14.368;2023-05-10T02:15:26;5.60;;;5.20;;
65552;SDS011;52465;51.560;14.368;2023-05-10T02:17:55;5.30;;;5.00;;
65552;SDS011;52465;51.560;14.368;2023-05-10T02:20:23;6.03;;;5.53;;
65552;SDS011;52465;51.560;14.368;2023-05-10T02:22:50;5.53;;;5.13;;
65552;SDS011;52465;51.560;14.368;2023-05-10T02:25:19;5.68;;;5.18;;
65552;SDS011;52465;51.560;14.368;2023-05-10T02:27:46;5.47;;;5.10;;
65552;SDS011;52465;51.560;14.368;2023-05-10T02:30:13;5.88;;;5.47;;
65552;SDS011;52465;51.560;14.368;2023-05-10T02:32:39;6.05;;;5.60;;
65552;SDS011;52465;51.560;14.368;2023-05-10T02:35:05;5.63;;;5.22;;
65552;SDS011;52465;51.560;14.368;2023-05-10T02:37:33;5.78;;;5.38;;
65552;SDS011;52465;51.560;14.368;2023-05-10T02:40:00;5.50;;;5.10;;
65552;SDS011;52465;51.560;14.368;2023-05-10T02:42:29;5.57;;;5.18;;
65552;SDS011;52465;51.560;14.368;2023-05-10T02:44:59;5.97;;;5.47;;
65552;SDS011;52465;51.560;14.368;2023-05-10T02:47:26;5.72;;;5.32;;
65552;SDS011;52465;51.560;14.368;2023-05-10T02:49:52;5.60;;;5.20;;
65552;SDS011;52465;51.560;14.368;2023-05-10T02:52:19;5.72;;;5.32;;
65552;SDS011;52465;51.560;14.368;2023-05-10T02:54:49;5.50;;;5.10;;
65552;SDS011;52465;51.560;14.368;2023-05-10T02:57:17;6.25;;;5.75;;
65552;SDS011;52465;51.560;14.368;2023-05-10T02:59:50;5.63;;;5.22;;
65552;SDS011;52465;51.560;14.368;2023-05-10T03:02:15;5.80;;;5.40;;
65552;SDS011;52465;51.560;14.368;2023-05-10T03:04:40;5.70;;;5.30;;
65552;SDS011;52465;51.560;14.368;2023-05-10T03:07:06;5.78;;;5.38;;
65552;SDS011;52465;51.560;14.368;2023-05-10T03:09:32;5.55;;;5.15;;
65552;SDS011;52465;51.560;14.368;2023-05-10T03:12:03;5.93;;;5.53;;
65552;SDS011;52465;51.560;14.368;2023-05-10T03:17:56;5.97;;;5.47;;
65552;SDS011;52465;51.560;14.368;2023-05-10T03:20:29;6.07;;;5.57;;
65552;SDS011;52465;51.560;14.368;2023-05-10T03:23:01;6.20;;;5.65;;
65552;SDS011;52465;51.560;14.368;2023-05-10T03:25:31;5.88;;;5.32;;
65552;SDS011;52465;51.560;14.368;2023-05-10T03:27:57;5.60;;;5.30;;
65552;SDS011;52465;51.560;14.368;2023-05-10T03:30:28;6.00;;;5.50;;
65552;SDS011;52465;51.560;14.368;2023-05-10T03:32:55;5.90;;;5.50;;
65552;SDS011;52465;51.560;14.368;2023-05-10T03:35:21;5.90;;;5.40;;
65552;SDS011;52465;51.560;14.368;2023-05-10T03:37:48;6.40;;;5.80;;
65552;SDS011;52465;51.560;14.368;2023-05-10T03:40:13;5.90;;;5.40;;
65552;SDS011;52465;51.560;14.368;2023-05-10T03:42:39;6.40;;;5.95;;
65552;SDS011;52465;51.560;14.368;2023-05-10T03:45:05;6.30;;;5.80;;
65552;SDS011;52465;51.560;14.368;2023-05-10T03:47:31;6.30;;;5.80;;
65552;SDS011;52465;51.560;14.368;2023-05-10T03:49:56;6.47;;;5.85;;
65552;SDS011;52465;51.560;14.368;2023-05-10T03:52:22;6.53;;;6.03;;
65552;SDS011;52465;51.560;14.368;2023-05-10T03:54:48;6.55;;;6.03;;
65552;SDS011;52465;51.560;14.368;2023-05-10T03:57:13;6.35;;;5.85;;
65552;SDS011;52465;51.560;14.368;2023-05-10T03:59:38;6.47;;;5.97;;
65552;SDS011;52465;51.560;14.368;2023-05-10T04:02:04;6.30;;;5.80;;
65552;SDS011;52465;51.560;14.368;2023-05-10T04:04:29;6.97;;;6.05;;
65552;SDS011;52465;51.560;14.368;2023-05-10T04:06:55;6.40;;;5.80;;
65552;SDS011;52465;51.560;14.368;2023-05-10T04:09:24;7.32;;;6.40;;
65552;SDS011;52465;51.560;14.368;2023-05-10T04:11:50;7.80;;;5.78;;
65552;SDS011;52465;51.560;14.368;2023-05-10T04:14:16;6.68;;;6.05;;
65552;SDS011;52465;51.560;14.368;2023-05-10T04:16:41;6.60;;;5.95;;
65552;SDS011;52465;51.560;14.368;2023-05-10T04:19:07;6.63;;;6.13;;
65552;SDS011;52465;51.560;14.368;2023-05-10T04:21:32;6.35;;;5.82;;
65552;SDS011;52465;51.560;14.368;2023-05-10T04:23:57;6.45;;;5.85;;
65552;SDS011;52465;51.560;14.368;2023-05-10T04:26:23;6.30;;;5.72;;
65552;SDS011;52465;51.560;14.368;2023-05-10T04:28:49;6.38;;;5.80;;
65552;SDS011;52465;51.560;14.368;2023-05-10T04:31:18;6.25;;;5.72;;
65552;SDS011;52465;51.560;14.368;2023-05-10T04:33:43;6.50;;;5.90;;
65552;SDS011;52465;51.560;14.368;2023-05-10T04:36:08;6.65;;;6.05;;
65552;SDS011;52465;51.560;14.368;2023-05-10T04:38:35;6.55;;;6.03;;
65552;SDS011;52465;51.560;14.368;2023-05-10T04:41:04;6.47;;;5.97;;
65552;SDS011;52465;51.560;14.368;2023-05-10T04:43:33;6.43;;;5.90;;
65552;SDS011;52465;51.560;14.368;2023-05-10T04:45:59;6.60;;;6.10;;
65552;SDS011;52465;51.560;14.368;2023-05-10T04:48:24;6.53;;;6.03;;
65552;SDS011;52465;51.560;14.368;2023-05-10T04:50:49;7.22;;;5.78;;
65552;SDS011;52465;51.560;14.368;2023-05-10T04:55:59;6.85;;;6.25;;
65552;SDS011;52465;51.560;14.368;2023-05-10T04:58:24;6.20;;;5.70;;
65552;SDS011;52465;51.560;14.368;2023-05-10T05:00:50;6.40;;;5.90;;
65552;SDS011;52465;51.560;14.368;2023-05-10T05:03:15;6.43;;;5.93;;
65552;SDS011;52465;51.560;14.368;2023-05-10T05:05:41;6.60;;;6.10;;
65552;SDS011;52465;51.560;14.368;2023-05-10T05:08:06;6.65;;;6.05;;
65552;SDS011;52465;51.560;14.368;2023-05-10T05:10:31;6.90;;;6.22;;
65552;SDS011;52465;51.560;14.368;2023-05-10T05:13:15;6.70;;;6.10;;
65552;SDS011;52465;51.560;14.368;2023-05-10T05:15:41;7.20;;;6.20;;
65552;SDS011;52465;51.560;14.368;2023-05-10T05:18:06;6.75;;;6.07;;
65552;SDS011;52465;51.560;14.368;2023-05-10T05:20:32;7.28;;;6.15;;
65552;SDS011;52465;51.560;14.368;2023-05-10T05:22:58;6.32;;;5.82;;
65552;SDS011;52465;51.560;14.368;2023-05-10T05:25:24;6.70;;;6.10;;
65552;SDS011;52465;51.560;14.368;2023-05-10T05:27:50;6.38;;;5.88;;
65552;SDS011;52465;51.560;14.368;2023-05-10T05:30:15;7.13;;;6.43;;
65552;SDS011;52465;51.560;14.368;2023-05-10T05:32:40;6.57;;;6.07;;
65552;SDS011;52465;51.560;14.368;2023-05-10T05:35:06;6.03;;;5.53;;
65552;SDS011;52465;51.560;14.368;2023-05-10T05:37:35;6.40;;;5.80;;
65552;SDS011;52465;51.560;14.368;2023-05-10T05:40:01;6.20;;;5.70;;
65552;SDS011;52465;51.560;14.368;2023-05-10T05:42:27;6.70;;;6.20;;
65552;SDS011;52465;51.560;14.368;2023-05-10T05:44:52;6.38;;;5.88;;
65552;SDS011;52465;51.560;14.368;2023-05-10T05:47:17;6.70;;;6.10;;
65552;SDS011;52465;51.560;14.368;2023-05-10T05:49:43;6.15;;;5.60;;
65552;SDS011;52465;51.560;14.368;2023-05-10T05:52:10;5.82;;;5.43;;
65552;SDS011;52465;51.560;14.368;2023-05-10T05:54:36;6.57;;;6.07;;
65552;SDS011;52465;51.560;14.368;2023-05-10T05:57:01;6.15;;;5.72;;
65552;SDS011;52465;51.560;14.368;2023-05-10T05:59:27;6.20;;;5.70;;
65552;SDS011;52465;51.560;14.368;2023-05-10T06:01:52;6.45;;;5.85;;
65552;SDS011;52465;51.560;14.368;2023-05-10T06:04:18;6.25;;;5.75;;
65552;SDS011;52465;51.560;14.368;2023-05-10T06:06:44;6.60;;;5.93;;
65552;SDS011;52465;51.560;14.368;2023-05-10T06:09:09;6.18;;;5.68;;
65552;SDS011;52465;51.560;14.368;2023-05-10T06:11:35;6.50;;;6.00;;
65552;SDS011;52465;51.560;14.368;2023-05-10T06:14:01;6.40;;;5.80;;
65552;SDS011;52465;51.560;14.368;2023-05-10T06:16:33;6.50;;;6.00;;
65552;SDS011;52465;51.560;14.368;2023-05-10T06:18:59;6.10;;;5.60;;
65552;SDS011;52465;51.560;14.368;2023-05-10T06:21:24;6.43;;;5.78;;
65552;SDS011;52465;51.560;14.368;2023-05-10T06:23:50;6.28;;;5.78;;
65552;SDS011;52465;51.560;14.368;2023-05-10T06:26:16;6.90;;;6.30;;
65552;SDS011;52465;51.560;14.368;2023-05-10T06:28:41;6.68;;;6.07;;
65552;SDS011;52465;51.560;14.368;2023-05-10T06:31:06;6.05;;;5.55;;
65552;SDS011;52465;51.560;14.368;2023-05-10T06:33:32;5.57;;;5.18;;
65552;SDS011;52465;51.560;14.368;2023-05-10T06:35:58;6.30;;;5.25;;
65552;SDS011;52465;51.560;14.368;2023-05-10T06:38:32;6.80;;;5.82;;
65552;SDS011;52465;51.560;14.368;2023-05-10T06:40:58;6.03;;;5.50;;
65552;SDS011;52465;51.560;14.368;2023-05-10T06:43:23;6.15;;;5.65;;
65552;SDS011;52465;51.560;14.368;2023-05-10T06:45:49;5.63;;;5.15;;
65552;SDS011;52465;51.560;14.368;2023-05-10T06:48:15;5.63;;;5.22;;
65552;SDS011;52465;51.560;14.368;2023-05-10T06:50:43;5.57;;;5.15;;
65552;SDS011;52465;51.560;14.368;2023-05-10T06:53:09;6.25;;;5.70;;
65552;SDS011;52465;51.560;14.368;2023-05-10T06:55:34;6.63;;;5.80;;
65552;SDS011;52465;51.560;14.368;2023-05-10T06:58:00;5.68;;;5.28;;
65552;SDS011;52465;51.560;14.368;2023-05-10T07:00:25;5.80;;;5.40;;
65552;SDS011;52465;51.560;14.368;2023-05-10T07:02:51;5.75;;;5.35;;
65552;SDS011;52465;51.560;14.368;2023-05-10T07:05:16;5.53;;;5.13;;
65552;SDS011;52465;51.560;14.368;2023-05-10T07:07:42;5.40;;;5.00;;
65552;SDS011;52465;51.560;14.368;2023-05-10T07:10:08;5.97;;;5.50;;
65552;SDS011;52465;51.560;14.368;2023-05-10T07:12:33;6.07;;;5.47;;
65552;SDS011;52465;51.560;14.368;2023-05-10T07:14:59;5.55;;;5.10;;
65552;SDS011;52465;51.560;14.368;2023-05-10T07:17:24;5.65;;;5.25;;
65552;SDS011;52465;51.560;14.368;2023-05-10T07:19:51;5.90;;;5.40;;
65552;SDS011;52465;51.560;14.368;2023-05-10T07:22:17;5.53;;;5.13;;
65552;SDS011;52465;51.560;14.368;2023-05-10T07:24:42;6.10;;;5.60;;
65552;SDS011;52465;51.560;14.368;2023-05-10T07:27:08;6.03;;;5.53;;
65552;SDS011;52465;51.560;14.368;2023-05-10T07:29:34;6.30;;;5.78;;
65552;SDS011;52465;51.560;14.368;2023-05-10T07:31:59;5.90;;;5.40;;
65552;SDS011;52465;51.560;14.368;2023-05-10T07:34:25;5.63;;;5.22;;
65552;SDS011;52465;51.560;14.368;2023-05-10T07:36:51;5.65;;;5.25;;
65552;SDS011;52465;51.560;14.368;2023-05-10T07:39:16;6.07;;;5.45;;
65552;SDS011;52465;51.560;14.368;2023-05-10T07:41:42;5.70;;;5.25;;
65552;SDS011;52465;51.560;14.368;2023-05-10T07:44:26;5.55;;;5.15;;
65552;SDS011;52465;51.560;14.368;2023-05-10T07:46:51;5.80;;;5.32;;
65552;SDS011;52465;51.560;14.368;2023-05-10T07:49:17;5.68;;;5.28;;
65552;SDS011;52465;51.560;14.368;2023-05-10T07:51:42;5.45;;;5.05;;
65552;SDS011;52465;51.560;14.368;2023-05-10T07:54:08;5.32;;;5.03;;
65552;SDS011;52465;51.560;14.368;2023-05-10T07:56:33;5.30;;;4.90;;
65552;SDS011;52465;51.560;14.368;2023-05-10T07:59:00;5.28;;;4.90;;
65552;SDS011;52465;51.560;14.368;2023-05-10T08:01:30;5.80;;;5.40;;
65552;SDS011;52465;51.560;14.368;2023-05-10T08:03:57;5.55;;;5.15;;
65552;SDS011;52465;51.560;14.368;2023-05-10T08:06:23;6.13;;;5.57;;
65552;SDS011;52465;51.560;14.368;2023-05-10T08:08:50;5.30;;;5.00;;
65552;SDS011;52465;51.560;14.368;2023-05-10T08:11:17;5.35;;;4.95;;
65552;SDS011;52465;51.560;14.368;2023-05-10T08:13:43;5.30;;;4.90;;
65552;SDS011;52465;51.560;14.368;2023-05-10T08:16:09;5.45;;;4.95;;
65552;SDS011;52465;51.560;14.368;2023-05-10T08:18:35;6.20;;;5.18;;
65552;SDS011;52465;51.560;14.368;2023-05-10T08:21:00;5.95;;;5.38;;
65552;SDS011;52465;51.560;14.368;2023-05-10T08:23:26;5.38;;;4.97;;
65552;SDS011;52465;51.560;14.368;2023-05-10T08:25:51;5.80;;;5.40;;
65552;SDS011;52465;51.560;14.368;2023-05-10T08:28:17;5.20;;;4.90;;
65552;SDS011;52465;51.560;14.368;2023-05-10T08:30:44;5.53;;;5.13;;
65552;SDS011;52465;51.560;14.368;2023-05-10T08:33:10;5.43;;;5.03;;
65552;SDS011;52465;51.560;14.368;2023-05-10T08:35:35;5.32;;;5.00;;
65552;SDS011;52465;51.560;14.368;2023-05-10T08:38:01;5.20;;;4.80;;
65552;SDS011;52465;51.560;14.368;2023-05-10T08:40:26;5.90;;;5.40;;
65552;SDS011;52465;51.560;14.368;2023-05-10T08:43:04;5.28;;;4.97;;
65552;SDS011;52465;51.560;14.368;2023-05-10T08:45:32;5.03;;;4.63;;
65552;SDS011;52465;51.560;14.368;2023-05-10T08:48:01;5.70;;;5.20;;
65552;SDS011;52465;51.560;14.368;2023-05-10T08:50:30;5.45;;;5.05;;
65552;SDS011;52465;51.560;14.368;2023-05-10T08:52:57;5.50;;;5.03;;
65552;SDS011;52465;51.560;14.368;2023-05-10T08:55:25;5.63;;;5.13;;
65552;SDS011;52465;51.560;14.368;2023-05-10T08:57:50;5.60;;;5.10;;
65552;SDS011;52465;51.560;14.368;2023-05-10T09:00:16;5.50;;;5.00;;
65552;SDS011;52465;51.560;14.368;2023-05-10T09:02:43;5.47;;;5.07;;
65552;SDS011;52465;51.560;14.368;2023-05-10T09:05:10;5.50;;;5.10;;
65552;SDS011;52465;51.560;14.368;2023-05-10T09:07:36;5.45;;;4.95;;
65552;SDS011;52465;51.560;14.368;2023-05-10T09:10:02;5.00;;;4.70;;
65552;SDS011;52465;51.560;14.368;2023-05-10T09:12:29;5.10;;;4.78;;
65552;SDS011;52465;51.560;14.368;2023-05-10T09:14:55;5.22;;;4.82;;
65552;SDS011;52465;51.560;14.368;2023-05-10T09:17:22;5.05;;;4.68;;
65552;SDS011;52465;51.560;14.368;2023-05-10T09:19:48;4.72;;;4.43;;
65552;SDS011;52465;51.560;14.368;2023-05-10T09:22:14;5.05;;;4.75;;
65552;SDS011;52465;51.560;14.368;2023-05-10T09:24:39;5.50;;;5.03;;
65552;SDS011;52465;51.560;14.368;2023-05-10T09:29:44;5.20;;;4.90;;
65552;SDS011;52465;51.560;14.368;2023-05-10T09:32:10;5.38;;;4.97;;
65552;SDS011;52465;51.560;14.368;2023-05-10T09:34:35;5.65;;;5.15;;
65552;SDS011;52465;51.560;14.368;2023-05-10T09:37:04;5.45;;;5.05;;
65552;SDS011;52465;51.560;14.368;2023-05-10T09:39:32;5.25;;;4.85;;
65552;SDS011;52465;51.560;14.368;2023-05-10T09:42:05;5.10;;;4.70;;
65552;SDS011;52465;51.560;14.368;2023-05-10T09:44:32;5.30;;;4.90;;
65552;SDS011;52465;51.560;14.368;2023-05-10T09:46:59;5.30;;;4.90;;
65552;SDS011;52465;51.560;14.368;2023-05-10T09:49:25;5.18;;;4.78;;
65552;SDS011;52465;51.560;14.368;2023-05-10T09:52:00;5.00;;;4.70;;
65552;SDS011;52465;51.560;14.368;2023-05-10T09:54:52;5.22;;;4.82;;
65552;SDS011;52465;51.560;14.368;2023-05-10T09:57:20;5.70;;;5.30;;
65552;SDS011;52465;51.560;14.368;2023-05-10T09:59:47;5.40;;;5.00;;
65552;SDS011;52465;51.560;14.368;2023-05-10T10:02:13;5.13;;;4.72;;
65552;SDS011;52465;51.560;14.368;2023-05-10T10:04:39;5.35;;;5.00;;
65552;SDS011;52465;51.560;14.368;2023-05-10T10:07:05;5.18;;;4.78;;
65552;SDS011;52465;51.560;14.368;2023-05-10T10:09:31;5.20;;;4.80;;
65552;SDS011;52465;51.560;14.368;2023-05-10T10:11:57;5.10;;;4.80;;
65552;SDS011;52465;51.560;14.368;2023-05-10T10:14:24;5.10;;;4.80;;
65552;SDS011;52465;51.560;14.368;2023-05-10T10:16:50;4.93;;;4.55;;
65552;SDS011;52465;51.560;14.368;2023-05-10T10:19:19;5.07;;;4.78;;
65552;SDS011;52465;51.560;14.368;2023-05-10T10:21:47;5.28;;;4.97;;
65552;SDS011;52465;51.560;14.368;2023-05-10T10:24:13;5.00;;;4.68;;
65552;SDS011;52465;51.560;14.368;2023-05-10T10:26:38;5.15;;;4.85;;
65552;SDS011;52465;51.560;14.368;2023-05-10T10:29:10;4.80;;;4.50;;
65552;SDS011;52465;51.560;14.368;2023-05-10T10:34:39;5.35;;;4.90;;
65552;SDS011;52465;51.560;14.368;2023-05-10T10:37:05;5.03;;;4.63;;
65552;SDS011;52465;51.560;14.368;2023-05-10T10:39:31;4.82;;;4.53;;
65552;SDS011;52465;51.560;14.368;2023-05-10T10:41:57;4.82;;;4.43;;
65552;SDS011;52465;51.560;14.368;2023-05-10T10:49:27;4.97;;;4.57;;
65552;SDS011;52465;51.560;14.368;2023-05-10T10:55:05;5.10;;;4.80;;
65552;SDS011;52465;51.560;14.368;2023-05-10T10:57:42;4.97;;;4.68;;
65552;SDS011;52465;51.560;14.368;2023-05-10T11:00:18;4.65;;;4.35;;
65552;SDS011;52465;51.560;14.368;2023-05-10T11:05:44;4.70;;;4.40;;
65552;SDS011;52465;51.560;14.368;2023-05-10T11:08:29;4.70;;;4.40;;
65552;SDS011;52465;51.560;14.368;2023-05-10T11:13:28;4.65;;;4.38;;
65552;SDS011;52465;51.560;14.368;2023-05-10T11:15:58;4.82;;;4.53;;
65552;SDS011;52465;51.560;14.368;2023-05-10T11:18:25;5.25;;;4.80;;
65552;SDS011;52465;51.560;14.368;2023-05-10T11:20:52;4.80;;;4.50;;
65552;SDS011;52465;51.560;14.368;2023-05-10T11:23:21;5.20;;;4.80;;
65552;SDS011;52465;51.560;14.368;2023-05-10T11:25:48;4.72;;;4.43;;
65552;SDS011;52465;51.560;14.368;2023-05-10T11:28:17;4.78;;;4.47;;
65552;SDS011;52465;51.560;14.368;2023-05-10T11:30:44;4.80;;;4.43;;
65552;SDS011;52465;51.560;14.368;2023-05-10T11:33:14;4.75;;;4.40;;
65552;SDS011;52465;51.560;14.368;2023-05-10T11:35:41;4.53;;;4.22;;
65552;SDS011;52465;51.560;14.368;2023-05-10T11:38:10;4.55;;;4.25;;
65552;SDS011;52465;51.560;14.368;2023-05-10T11:40:37;4.72;;;4.43;;
65552;SDS011;52465;51.560;14.368;2023-05-10T11:43:03;4.82;;;4.53;;
65552;SDS011;52465;51.560;14.368;2023-05-10T11:45:29;4.72;;;4.30;;
65552;SDS011;52465;51.560;14.368;2023-05-10T11:47:57;5.15;;;4.75;;
65552;SDS011;52465;51.560;14.368;2023-05-10T11:50:23;5.05;;;4.65;;
65552;SDS011;52465;51.560;14.368;2023-05-10T11:52:52;5.30;;;4.72;;
65552;SDS011;52465;51.560;14.368;2023-05-10T11:55:18;4.75;;;4.45;;
65552;SDS011;52465;51.560;14.368;2023-05-10T12:00:41;4.72;;;4.43;;
65552;SDS011;52465;51.560;14.368;2023-05-10T12:03:06;4.88;;;4.57;;
65552;SDS011;52465;51.560;14.368;2023-05-10T12:05:32;4.68;;;4.38;;
65552;SDS011;52465;51.560;14.368;2023-05-10T12:10:35;5.05;;;4.65;;
65552;SDS011;52465;51.560;14.368;2023-05-10T12:13:01;4.90;;;4.50;;
65552;SDS011;52465;51.560;14.368;2023-05-10T12:18:22;4.43;;;4.20;;
65552;SDS011;52465;51.560;14.368;2023-05-10T12:20:49;4.63;;;4.40;;
65552;SDS011;52465;51.560;14.368;2023-05-10T12:23:17;4.50;;;4.20;;
65552;SDS011;52465;51.560;14.368;2023-05-10T12:25:42;4.70;;;4.32;;
65552;SDS011;52465;51.560;14.368;2023-05-10T12:28:08;4.93;;;4.53;;
65552;SDS011;52465;51.560;14.368;2023-05-10T12:30:35;4.70;;;4.32;;
65552;SDS011;52465;51.560;14.368;2023-05-10T12:35:44;4.75;;;4.45;;
65552;SDS011;52465;51.560;14.368;2023-05-10T12:38:26;4.38;;;4.07;;
65552;SDS011;52465;51.560;14.368;2023-05-10T12:40:59;4.80;;;4.50;;
65552;SDS011;52465;51.560;14.368;2023-05-10T12:43:25;4.50;;;4.20;;
65552;SDS011;52465;51.560;14.368;2023-05-10T12:45:51;4.82;;;4.53;;
65552;SDS011;52465;51.560;14.368;2023-05-10T12:48:16;5.03;;;4.63;;
65552;SDS011;52465;51.560;14.368;2023-05-10T12:50:42;4.63;;;4.20;;
65552;SDS011;52465;51.560;14.368;2023-05-10T12:53:07;4.60;;;4.20;;
65552;SDS011;52465;51.560;14.368;2023-05-10T12:55:33;4.40;;;4.10;;
65552;SDS011;52465;51.560;14.368;2023-05-10T12:57:58;4.40;;;4.10;;
65552;SDS011;52465;51.560;14.368;2023-05-10T13:00:24;4.53;;;4.20;;
65552;SDS011;52465;51.560;14.368;2023-05-10T13:02:51;4.88;;;4.57;;
65552;SDS011;52465;51.560;14.368;2023-05-10T13:05:17;4.97;;;4.68;;
65552;SDS011;52465;51.560;14.368;2023-05-10T13:07:42;4.60;;;4.30;;
65552;SDS011;52465;51.560;14.368;2023-05-10T13:10:09;4.40;;;4.20;;
65552;SDS011;52465;51.560;14.368;2023-05-10T13:12:35;4.60;;;4.30;;
65552;SDS011;52465;51.560;14.368;2023-05-10T13:15:01;4.75;;;4.22;;
65552;SDS011;52465;51.560;14.368;2023-05-10T13:17:28;4.35;;;4.05;;
65552;SDS011;52465;51.560;14.368;2023-05-10T13:19:54;4.30;;;4.00;;
65552;SDS011;52465;51.560;14.368;2023-05-10T13:22:19;4.68;;;4.30;;
65552;SDS011;52465;51.560;14.368;2023-05-10T13:24:44;4.85;;;4.47;;
65552;SDS011;52465;51.560;14.368;2023-05-10T13:27:10;4.47;;;4.18;;
65552;SDS011;52465;51.560;14.368;2023-05-10T13:29:35;4.60;;;4.30;;
65552;SDS011;52465;51.560;14.368;2023-05-10T13:32:01;4.85;;;4.47;;
65552;SDS011;52465;51.560;14.368;2023-05-10T13:34:26;4.60;;;4.30;;
65552;SDS011;52465;51.560;14.368;2023-05-10T13:36:52;4.22;;;3.92;;
65552;SDS011;52465;51.560;14.368;2023-05-10T13:39:18;4.35;;;4.05;;
65552;SDS011;52465;51.560;14.368;2023-05-10T13:41:45;4.60;;;4.28;;
65552;SDS011;52465;51.560;14.368;2023-05-10T13:44:14;4.50;;;4.15;;
65552;SDS011;52465;51.560;14.368;2023-05-10T13:46:52;4.50;;;4.20;;
65552;SDS011;52465;51.560;14.368;2023-05-10T13:49:22;4.22;;;3.92;;
65552;SDS011;52465;51.560;14.368;2023-05-10T13:51:47;4.47;;;4.15;;
65552;SDS011;52465;51.560;14.368;2023-05-10T13:54:13;4.88;;;3.97;;
65552;SDS011;52465;51.560;14.368;2023-05-10T13:56:39;4.20;;;3.85;;
65552;SDS011;52465;51.560;14.368;2023-05-10T13:59:05;4.40;;;4.03;;
65552;SDS011;52465;51.560;14.368;2023-05-10T14:01:32;3.95;;;3.65;;
65552;SDS011;52465;51.560;14.368;2023-05-10T14:03:58;4.05;;;3.85;;
65552;SDS011;52465;51.560;14.368;2023-05-10T14:06:26;4.57;;;4.28;;
65552;SDS011;52465;51.560;14.368;2023-05-10T14:08:52;3.92;;;3.72;;
65552;SDS011;52465;51.560;14.368;2023-05-10T14:11:17;4.15;;;3.85;;
65552;SDS011;52465;51.560;14.368;2023-05-10T14:13:42;4.63;;;4.22;;
65552;SDS011;52465;51.560;14.368;2023-05-10T14:16:08;4.70;;;4.30;;
65552;SDS011;52465;51.560;14.368;2023-05-10T14:18:33;4.13;;;3.90;;
65552;SDS011;52465;51.560;14.368;2023-05-10T14:20:59;4.57;;;4.28;;
65552;SDS011;52465;51.560;14.368;2023-05-10T14:23:24;4.50;;;4.20;;
65552;SDS011;52465;51.560;14.368;2023-05-10T14:25:50;4.60;;;4.18;;
65552;SDS011;52465;51.560;14.368;2023-05-10T14:28:16;4.30;;;4.00;;
65552;SDS011;52465;51.560;14.368;2023-05-10T14:30:43;4.25;;;4.00;;
65552;SDS011;52465;51.560;14.368;2023-05-10T14:33:09;4.40;;;4.10;;
65552;SDS011;52465;51.560;14.368;2023-05-10T14:35:35;4.22;;;4.00;;
65552;SDS011;52465;51.560;14.368;2023-05-10T14:38:01;3.92;;;3.72;;
65552;SDS011;52465;51.560;14.368;2023-05-10T14:40:27;4.68;;;4.28;;
65552;SDS011;52465;51.560;14.368;2023-05-10T14:42:53;4.80;;;4.30;;
65552;SDS011;52465;51.560;14.368;2023-05-10T14:45:19;4.18;;;3.92;;
65552;SDS011;52465;51.560;14.368;2023-05-10T14:47:45;4.30;;;4.00;;
65552;SDS011;52465;51.560;14.368;2023-05-10T14:50:10;4.30;;;4.00;;
65552;SDS011;52465;51.560;14.368;2023-05-10T14:52:36;4.30;;;4.00;;
65552;SDS011;52465;51.560;14.368;2023-05-10T14:55:01;4.45;;;4.10;;
65552;SDS011;52465;51.560;14.368;2023-05-10T14:57:27;4.38;;;4.00;;
65552;SDS011;52465;51.560;14.368;2023-05-10T14:59:54;4.35;;;3.95;;
65552;SDS011;52465;51.560;14.368;2023-05-10T15:02:20;4.13;;;3.92;;
65552;SDS011;52465;51.560;14.368;2023-05-10T15:04:46;4.13;;;3.83;;
65552;SDS011;52465;51.560;14.368;2023-05-10T15:07:11;4.38;;;4.07;;
65552;SDS011;52465;51.560;14.368;2023-05-10T15:09:39;4.25;;;3.90;;
65552;SDS011;52465;51.560;14.368;2023-05-10T15:12:04;4.35;;;4.05;;
65552;SDS011;52465;51.560;14.368;2023-05-10T15:14:48;4.35;;;4.10;;
65552;SDS011;52465;51.560;14.368;2023-05-10T15:17:14;4.28;;;3.88;;
65552;SDS011;52465;51.560;14.368;2023-05-10T15:22:44;4.47;;;4.07;;
65552;SDS011;52465;51.560;14.368;2023-05-10T15:25:09;4.20;;;3.80;;
65552;SDS011;52465;51.560;14.368;2023-05-10T15:27:35;4.07;;;3.80;;